sensor_id;sensor_type;location;lat;lon;timestamp;temperature;humidity
4295;DHT22;2161;53.634;10.100;2023-04-16T00:01:38;9.90;99.90
4295;DHT22;2161;53.634;10.100;2023-04-16T00:04:03;10.00;99.90
4295;DHT22;2161;53.634;10.100;2023-04-16T00:06:29;10.10;99.90
4295;DHT22;2161;53.634;10.100;2023-04-16T00:08:54;10.10;99.90
4295;DHT22;2161;53.634;10.100;2023-04-16T00:11:21;10.00;99.90
4295;DHT22;2161;53.634;10.100;2023-04-16T00:13:46;9.90;99.90
4295;DHT22;2161;53.634;10.100;2023-04-16T00:16:12;9.40;99.90
4295;DHT22;2161;53.634;10.100;2023-04-16T00:18:37;9.50;99.90
4295;DHT22;2161;53.634;10.100;2023-04-16T00:21:03;9.60;99.90
4295;DHT22;2161;53.634;10.100;2023-04-16T00:23:29;9.60;99.90
4295;DHT22;2161;53.634;10.100;2023-04-16T00:25:54;9.70;99.90
4295;DHT22;2161;53.634;10.100;2023-04-16T00:28:24;9.80;99.90
4295;DHT22;2161;53.634;10.100;2023-04-16T00:30:50;9.60;99.90
4295;DHT22;2161;53.634;10.100;2023-04-16T00:33:16;9.60;99.90
4295;DHT22;2161;53.634;10.100;2023-04-16T00:35:41;9.50;99.90
4295;DHT22;2161;53.634;10.100;2023-04-16T00:38:09;9.60;99.90
4295;DHT22;2161;53.634;10.100;2023-04-16T00:40:34;9.70;99.90
4295;DHT22;2161;53.634;10.100;2023-04-16T00:43:00;9.60;99.90
4295;DHT22;2161;53.634;10.100;2023-04-16T00:45:25;9.50;99.90
4295;DHT22;2161;53.634;10.100;2023-04-16T00:47:51;9.50;99.90
4295;DHT22;2161;53.634;10.100;2023-04-16T00:50:17;9.70;99.90
4295;DHT22;2161;53.634;10.100;2023-04-16T00:52:42;9.80;99.90
4295;DHT22;2161;53.634;10.100;2023-04-16T00:55:09;9.50;99.90
4295;DHT22;2161;53.634;10.100;2023-04-16T00:57:37;9.40;99.90
4295;DHT22;2161;53.634;10.100;2023-04-16T01:00:03;9.40;99.90
4295;DHT22;2161;53.634;10.100;2023-04-16T01:02:29;9.30;99.90
4295;DHT22;2161;53.634;10.100;2023-04-16T01:04:55;9.40;99.90
4295;DHT22;2161;53.634;10.100;2023-04-16T01:07:20;9.60;99.90
4295;DHT22;2161;53.634;10.100;2023-04-16T01:09:46;9.70;99.90
4295;DHT22;2161;53.634;10.100;2023-04-16T01:12:12;9.70;99.90
4295;DHT22;2161;53.634;10.100;2023-04-16T01:14:38;9.70;99.90
4295;DHT22;2161;53.634;10.100;2023-04-16T01:17:04;9.50;99.90
4295;DHT22;2161;53.634;10.100;2023-04-16T01:19:30;9.50;99.90
4295;DHT22;2161;53.634;10.100;2023-04-16T01:21:57;9.60;99.90
4295;DHT22;2161;53.634;10.100;2023-04-16T01:24:22;9.90;99.90
4295;DHT22;2161;53.634;10.100;2023-04-16T01:26:48;10.00;99.90
4295;DHT22;2161;53.634;10.100;2023-04-16T01:29:13;10.00;99.90
4295;DHT22;2161;53.634;10.100;2023-04-16T01:31:39;9.60;99.90
4295;DHT22;2161;53.634;10.100;2023-04-16T01:34:04;9.80;99.90
4295;DHT22;2161;53.634;10.100;2023-04-16T01:36:30;10.00;99.90
4295;DHT22;2161;53.634;10.100;2023-04-16T01:38:55;10.10;99.90
4295;DHT22;2161;53.634;10.100;2023-04-16T01:41:21;9.90;99.90
4295;DHT22;2161;53.634;10.100;2023-04-16T01:43:47;9.90;99.90
4295;DHT22;2161;53.634;10.100;2023-04-16T01:46:29;10.00;99.90
4295;DHT22;2161;53.634;10.100;2023-04-16T01:48:56;9.80;99.90
4295;DHT22;2161;53.634;10.100;2023-04-16T01:51:21;9.90;99.90
4295;DHT22;2161;53.634;10.100;2023-04-16T01:53:48;10.00;99.90
4295;DHT22;2161;53.634;10.100;2023-04-16T01:56:14;9.90;99.90
4295;DHT22;2161;53.634;10.100;2023-04-16T01:58:40;9.90;99.90
4295;DHT22;2161;53.634;10.100;2023-04-16T02:01:10;10.00;99.90
4295;DHT22;2161;53.634;10.100;2023-04-16T02:03:35;10.10;99.90
4295;DHT22;2161;53.634;10.100;2023-04-16T02:06:01;10.10;99.90
4295;DHT22;2161;53.634;10.100;2023-04-16T02:08:27;10.10;99.90
4295;DHT22;2161;53.634;10.100;2023-04-16T02:10:53;10.00;99.90
4295;DHT22;2161;53.634;10.100;2023-04-16T02:13:18;10.10;99.90
4295;DHT22;2161;53.634;10.100;2023-04-16T02:15:45;10.10;99.90
4295;DHT22;2161;53.634;10.100;2023-04-16T02:18:12;10.20;99.90
4295;DHT22;2161;53.634;10.100;2023-04-16T02:20:41;10.20;99.90
4295;DHT22;2161;53.634;10.100;2023-04-16T02:23:08;10.30;99.90
4295;DHT22;2161;53.634;10.100;2023-04-16T02:25:40;10.40;99.90
4295;DHT22;2161;53.634;10.100;2023-04-16T02:28:10;10.30;99.90
4295;DHT22;2161;53.634;10.100;2023-04-16T02:30:37;10.30;99.90
4295;DHT22;2161;53.634;10.100;2023-04-16T02:33:03;10.10;99.90
4295;DHT22;2161;53.634;10.100;2023-04-16T02:35:34;10.30;99.90
4295;DHT22;2161;53.634;10.100;2023-04-16T02:38:01;10.10;99.90
4295;DHT22;2161;53.634;10.100;2023-04-16T02:40:27;10.10;99.90
4295;DHT22;2161;53.634;10.100;2023-04-16T02:42:53;10.10;99.90
4295;DHT22;2161;53.634;10.100;2023-04-16T02:45:19;10.20;99.90
4295;DHT22;2161;53.634;10.100;2023-04-16T02:47:46;10.00;99.90
4295;DHT22;2161;53.634;10.100;2023-04-16T02:50:11;10.00;99.90
4295;DHT22;2161;53.634;10.100;2023-04-16T02:52:37;10.20;99.90
4295;DHT22;2161;53.634;10.100;2023-04-16T02:55:03;10.00;99.90
4295;DHT22;2161;53.634;10.100;2023-04-16T02:57:28;10.00;99.90
4295;DHT22;2161;53.634;10.100;2023-04-16T02:59:54;10.10;99.90
4295;DHT22;2161;53.634;10.100;2023-04-16T03:02:19;10.30;99.90
4295;DHT22;2161;53.634;10.100;2023-04-16T03:04:45;10.30;99.90
4295;DHT22;2161;53.634;10.100;2023-04-16T03:07:11;10.30;99.90
4295;DHT22;2161;53.634;10.100;2023-04-16T03:09:37;10.40;99.90
4295;DHT22;2161;53.634;10.100;2023-04-16T03:12:03;10.50;99.90
4295;DHT22;2161;53.634;10.100;2023-04-16T03:14:29;10.40;99.90
4295;DHT22;2161;53.634;10.100;2023-04-16T03:16:55;10.50;99.90
4295;DHT22;2161;53.634;10.100;2023-04-16T03:19:21;10.30;99.90
4295;DHT22;2161;53.634;10.100;2023-04-16T03:21:46;10.30;99.90
4295;DHT22;2161;53.634;10.100;2023-04-16T03:24:12;10.40;99.90
4295;DHT22;2161;53.634;10.100;2023-04-16T03:26:37;10.30;99.90
4295;DHT22;2161;53.634;10.100;2023-04-16T03:29:03;10.40;99.90
4295;DHT22;2161;53.634;10.100;2023-04-16T03:31:29;10.40;99.90
4295;DHT22;2161;53.634;10.100;2023-04-16T03:33:54;10.50;99.90
4295;DHT22;2161;53.634;10.100;2023-04-16T03:36:20;10.50;99.90
4295;DHT22;2161;53.634;10.100;2023-04-16T03:38:47;10.40;99.90
4295;DHT22;2161;53.634;10.100;2023-04-16T03:41:13;10.40;99.90
4295;DHT22;2161;53.634;10.100;2023-04-16T03:43:39;10.50;99.90
4295;DHT22;2161;53.634;10.100;2023-04-16T03:46:05;10.50;99.90
4295;DHT22;2161;53.634;10.100;2023-04-16T03:48:30;10.50;99.90
4295;DHT22;2161;53.634;10.100;2023-04-16T03:50:56;10.50;99.90
4295;DHT22;2161;53.634;10.100;2023-04-16T03:53:21;10.50;99.90
4295;DHT22;2161;53.634;10.100;2023-04-16T03:55:50;10.60;99.90
4295;DHT22;2161;53.634;10.100;2023-04-16T03:58:17;10.40;99.90
4295;DHT22;2161;53.634;10.100;2023-04-16T04:00:42;10.50;99.90
4295;DHT22;2161;53.634;10.100;2023-04-16T04:03:09;10.40;99.90
4295;DHT22;2161;53.634;10.100;2023-04-16T04:05:36;10.40;99.90
4295;DHT22;2161;53.634;10.100;2023-04-16T04:08:02;10.40;99.90
4295;DHT22;2161;53.634;10.100;2023-04-16T04:10:30;10.30;99.90
4295;DHT22;2161;53.634;10.100;2023-04-16T04:12:55;10.20;99.90
4295;DHT22;2161;53.634;10.100;2023-04-16T04:15:21;10.40;99.90
4295;DHT22;2161;53.634;10.100;2023-04-16T04:17:46;10.40;99.90
4295;DHT22;2161;53.634;10.100;2023-04-16T04:20:12;10.30;99.90
4295;DHT22;2161;53.634;10.100;2023-04-16T04:22:37;10.40;99.90
4295;DHT22;2161;53.634;10.100;2023-04-16T04:25:03;10.50;99.90
4295;DHT22;2161;53.634;10.100;2023-04-16T04:27:29;10.50;99.90
4295;DHT22;2161;53.634;10.100;2023-04-16T04:29:55;10.40;99.90
4295;DHT22;2161;53.634;10.100;2023-04-16T04:32:21;10.40;99.90
4295;DHT22;2161;53.634;10.100;2023-04-16T04:34:46;10.30;99.90
4295;DHT22;2161;53.634;10.100;2023-04-16T04:37:12;10.40;99.90
4295;DHT22;2161;53.634;10.100;2023-04-16T04:39:37;10.40;99.90
4295;DHT22;2161;53.634;10.100;2023-04-16T04:42:03;10.40;99.90
4295;DHT22;2161;53.634;10.100;2023-04-16T04:44:28;10.50;99.90
4295;DHT22;2161;53.634;10.100;2023-04-16T04:46:54;10.40;99.90
4295;DHT22;2161;53.634;10.100;2023-04-16T04:49:19;10.50;99.90
4295;DHT22;2161;53.634;10.100;2023-04-16T04:51:45;10.50;99.90
4295;DHT22;2161;53.634;10.100;2023-04-16T04:54:10;10.50;99.90
4295;DHT22;2161;53.634;10.100;2023-04-16T04:56:36;10.50;99.90
4295;DHT22;2161;53.634;10.100;2023-04-16T04:59:01;10.50;99.90
4295;DHT22;2161;53.634;10.100;2023-04-16T05:01:27;10.60;99.90
4295;DHT22;2161;53.634;10.100;2023-04-16T05:03:52;10.60;99.90
4295;DHT22;2161;53.634;10.100;2023-04-16T05:06:18;10.50;99.90
4295;DHT22;2161;53.634;10.100;2023-04-16T05:08:44;10.50;99.90
4295;DHT22;2161;53.634;10.100;2023-04-16T05:11:09;10.60;99.90
4295;DHT22;2161;53.634;10.100;2023-04-16T05:13:35;10.60;99.90
4295;DHT22;2161;53.634;10.100;2023-04-16T05:16:00;10.60;99.90
4295;DHT22;2161;53.634;10.100;2023-04-16T05:18:26;10.60;99.90
4295;DHT22;2161;53.634;10.100;2023-04-16T05:20:52;10.50;99.90
4295;DHT22;2161;53.634;10.100;2023-04-16T05:23:17;10.60;99.90
4295;DHT22;2161;53.634;10.100;2023-04-16T05:25:43;10.40;99.90
4295;DHT22;2161;53.634;10.100;2023-04-16T05:28:09;10.50;99.90
4295;DHT22;2161;53.634;10.100;2023-04-16T05:30:34;10.60;99.90
4295;DHT22;2161;53.634;10.100;2023-04-16T05:33:00;10.60;99.90
4295;DHT22;2161;53.634;10.100;2023-04-16T05:35:25;10.50;99.90
4295;DHT22;2161;53.634;10.100;2023-04-16T05:37:52;10.50;99.90
4295;DHT22;2161;53.634;10.100;2023-04-16T05:40:17;10.50;99.90
4295;DHT22;2161;53.634;10.100;2023-04-16T05:42:43;10.40;99.90
4295;DHT22;2161;53.634;10.100;2023-04-16T05:45:09;10.60;99.90
4295;DHT22;2161;53.634;10.100;2023-04-16T05:47:34;10.40;99.90
4295;DHT22;2161;53.634;10.100;2023-04-16T05:50:00;10.40;99.90
4295;DHT22;2161;53.634;10.100;2023-04-16T05:52:25;10.50;99.90
4295;DHT22;2161;53.634;10.100;2023-04-16T05:54:51;10.60;99.90
4295;DHT22;2161;53.634;10.100;2023-04-16T05:57:17;10.70;99.90
4295;DHT22;2161;53.634;10.100;2023-04-16T05:59:42;10.60;99.90
4295;DHT22;2161;53.634;10.100;2023-04-16T06:02:08;10.50;99.90
4295;DHT22;2161;53.634;10.100;2023-04-16T06:04:33;10.30;99.90
4295;DHT22;2161;53.634;10.100;2023-04-16T06:07:00;10.50;99.90
4295;DHT22;2161;53.634;10.100;2023-04-16T06:09:25;10.40;99.90
4295;DHT22;2161;53.634;10.100;2023-04-16T06:11:51;10.60;99.90
4295;DHT22;2161;53.634;10.100;2023-04-16T06:14:17;10.60;99.90
4295;DHT22;2161;53.634;10.100;2023-04-16T06:16:42;10.70;99.90
4295;DHT22;2161;53.634;10.100;2023-04-16T06:19:08;10.60;99.90
4295;DHT22;2161;53.634;10.100;2023-04-16T06:21:33;10.90;99.90
4295;DHT22;2161;53.634;10.100;2023-04-16T06:23:59;10.70;99.90
4295;DHT22;2161;53.634;10.100;2023-04-16T06:26:25;10.60;99.90
4295;DHT22;2161;53.634;10.100;2023-04-16T06:28:51;10.70;99.90
4295;DHT22;2161;53.634;10.100;2023-04-16T06:31:16;10.60;99.90
4295;DHT22;2161;53.634;10.100;2023-04-16T06:33:42;10.60;99.90
4295;DHT22;2161;53.634;10.100;2023-04-16T06:36:07;10.70;99.90
4295;DHT22;2161;53.634;10.100;2023-04-16T06:38:33;10.70;99.90
4295;DHT22;2161;53.634;10.100;2023-04-16T06:40:58;10.70;99.90
4295;DHT22;2161;53.634;10.100;2023-04-16T06:43:24;10.70;99.90
4295;DHT22;2161;53.634;10.100;2023-04-16T06:45:50;10.80;99.90
4295;DHT22;2161;53.634;10.100;2023-04-16T06:48:16;10.70;99.90
4295;DHT22;2161;53.634;10.100;2023-04-16T06:50:41;10.80;99.90
4295;DHT22;2161;53.634;10.100;2023-04-16T06:53:07;10.60;99.90
4295;DHT22;2161;53.634;10.100;2023-04-16T06:55:33;10.70;99.90
4295;DHT22;2161;53.634;10.100;2023-04-16T06:57:58;10.70;99.90
4295;DHT22;2161;53.634;10.100;2023-04-16T07:00:24;10.80;99.90
4295;DHT22;2161;53.634;10.100;2023-04-16T07:02:49;10.80;99.90
4295;DHT22;2161;53.634;10.100;2023-04-16T07:05:15;10.80;99.90
4295;DHT22;2161;53.634;10.100;2023-04-16T07:07:40;10.90;99.90
4295;DHT22;2161;53.634;10.100;2023-04-16T07:10:06;10.90;99.90
4295;DHT22;2161;53.634;10.100;2023-04-16T07:12:32;10.90;99.90
4295;DHT22;2161;53.634;10.100;2023-04-16T07:14:58;10.90;99.90
4295;DHT22;2161;53.634;10.100;2023-04-16T07:17:23;10.90;99.90
4295;DHT22;2161;53.634;10.100;2023-04-16T07:19:50;10.90;99.90
4295;DHT22;2161;53.634;10.100;2023-04-16T07:22:16;11.00;99.90
4295;DHT22;2161;53.634;10.100;2023-04-16T07:24:41;10.80;99.90
4295;DHT22;2161;53.634;10.100;2023-04-16T07:27:07;10.70;99.90
4295;DHT22;2161;53.634;10.100;2023-04-16T07:29:32;10.80;99.90
4295;DHT22;2161;53.634;10.100;2023-04-16T07:31:58;10.70;99.90
4295;DHT22;2161;53.634;10.100;2023-04-16T07:34:23;10.60;99.90
4295;DHT22;2161;53.634;10.100;2023-04-16T07:36:49;10.80;99.90
4295;DHT22;2161;53.634;10.100;2023-04-16T07:39:15;10.70;99.90
4295;DHT22;2161;53.634;10.100;2023-04-16T07:41:40;10.70;99.90
4295;DHT22;2161;53.634;10.100;2023-04-16T07:44:07;10.70;99.90
4295;DHT22;2161;53.634;10.100;2023-04-16T07:46:33;10.80;99.90
4295;DHT22;2161;53.634;10.100;2023-04-16T07:48:59;10.80;99.90
4295;DHT22;2161;53.634;10.100;2023-04-16T07:51:24;10.80;99.90
4295;DHT22;2161;53.634;10.100;2023-04-16T07:53:50;10.60;99.90
4295;DHT22;2161;53.634;10.100;2023-04-16T07:56:15;10.80;99.90
4295;DHT22;2161;53.634;10.100;2023-04-16T07:58:41;10.90;99.90
4295;DHT22;2161;53.634;10.100;2023-04-16T08:01:06;10.90;99.90
4295;DHT22;2161;53.634;10.100;2023-04-16T08:03:32;11.00;99.90
4295;DHT22;2161;53.634;10.100;2023-04-16T08:05:57;11.10;99.90
4295;DHT22;2161;53.634;10.100;2023-04-16T08:08:23;11.10;99.90
4295;DHT22;2161;53.634;10.100;2023-04-16T08:10:49;10.90;99.90
4295;DHT22;2161;53.634;10.100;2023-04-16T08:13:14;10.90;99.90
4295;DHT22;2161;53.634;10.100;2023-04-16T08:15:40;10.90;99.90
4295;DHT22;2161;53.634;10.100;2023-04-16T08:18:05;11.00;99.90
4295;DHT22;2161;53.634;10.100;2023-04-16T08:20:37;11.00;99.90
4295;DHT22;2161;53.634;10.100;2023-04-16T08:23:03;11.20;99.90
4295;DHT22;2161;53.634;10.100;2023-04-16T08:25:28;11.10;99.90
4295;DHT22;2161;53.634;10.100;2023-04-16T08:27:54;11.00;99.90
4295;DHT22;2161;53.634;10.100;2023-04-16T08:30:19;11.10;99.90
4295;DHT22;2161;53.634;10.100;2023-04-16T08:32:46;11.20;99.90
4295;DHT22;2161;53.634;10.100;2023-04-16T08:35:11;11.10;99.90
4295;DHT22;2161;53.634;10.100;2023-04-16T08:37:37;11.00;99.90
4295;DHT22;2161;53.634;10.100;2023-04-16T08:40:03;11.10;99.90
4295;DHT22;2161;53.634;10.100;2023-04-16T08:42:35;11.30;99.90
4295;DHT22;2161;53.634;10.100;2023-04-16T08:45:13;11.30;99.90
4295;DHT22;2161;53.634;10.100;2023-04-16T08:47:49;11.30;99.90
4295;DHT22;2161;53.634;10.100;2023-04-16T08:50:15;11.30;99.90
4295;DHT22;2161;53.634;10.100;2023-04-16T08:53:04;11.30;99.90
4295;DHT22;2161;53.634;10.100;2023-04-16T08:55:38;11.10;99.90
4295;DHT22;2161;53.634;10.100;2023-04-16T08:58:11;11.10;99.90
4295;DHT22;2161;53.634;10.100;2023-04-16T09:00:36;11.10;99.90
4295;DHT22;2161;53.634;10.100;2023-04-16T09:03:03;11.10;99.90
4295;DHT22;2161;53.634;10.100;2023-04-16T09:05:30;11.10;99.90
4295;DHT22;2161;53.634;10.100;2023-04-16T09:07:56;11.10;99.90
4295;DHT22;2161;53.634;10.100;2023-04-16T09:10:22;11.10;99.90
4295;DHT22;2161;53.634;10.100;2023-04-16T09:12:48;11.20;99.90
4295;DHT22;2161;53.634;10.100;2023-04-16T09:15:14;11.30;99.90
4295;DHT22;2161;53.634;10.100;2023-04-16T09:17:40;11.40;99.90
4295;DHT22;2161;53.634;10.100;2023-04-16T09:20:07;11.40;99.90
4295;DHT22;2161;53.634;10.100;2023-04-16T09:22:37;11.40;99.90
4295;DHT22;2161;53.634;10.100;2023-04-16T09:25:03;11.40;99.90
4295;DHT22;2161;53.634;10.100;2023-04-16T09:27:29;11.40;99.90
4295;DHT22;2161;53.634;10.100;2023-04-16T09:29:55;11.50;99.90
4295;DHT22;2161;53.634;10.100;2023-04-16T09:32:24;11.60;99.90
4295;DHT22;2161;53.634;10.100;2023-04-16T09:34:58;11.70;99.90
4295;DHT22;2161;53.634;10.100;2023-04-16T09:37:25;11.70;99.90
4295;DHT22;2161;53.634;10.100;2023-04-16T09:39:59;11.60;99.90
4295;DHT22;2161;53.634;10.100;2023-04-16T09:42:27;11.70;99.90
4295;DHT22;2161;53.634;10.100;2023-04-16T09:44:53;11.70;99.90
4295;DHT22;2161;53.634;10.100;2023-04-16T09:47:19;11.70;99.90
4295;DHT22;2161;53.634;10.100;2023-04-16T09:49:45;11.40;99.90
4295;DHT22;2161;53.634;10.100;2023-04-16T09:52:16;11.70;99.90
4295;DHT22;2161;53.634;10.100;2023-04-16T09:54:48;11.70;99.90
4295;DHT22;2161;53.634;10.100;2023-04-16T09:57:26;11.60;99.90
4295;DHT22;2161;53.634;10.100;2023-04-16T10:00:00;11.70;99.90
4295;DHT22;2161;53.634;10.100;2023-04-16T10:02:29;11.50;99.90
4295;DHT22;2161;53.634;10.100;2023-04-16T10:04:55;11.50;99.90
4295;DHT22;2161;53.634;10.100;2023-04-16T10:07:22;11.40;99.90
4295;DHT22;2161;53.634;10.100;2023-04-16T10:09:52;11.40;99.90
4295;DHT22;2161;53.634;10.100;2023-04-16T10:12:18;11.40;99.90
4295;DHT22;2161;53.634;10.100;2023-04-16T10:14:44;11.40;99.90
4295;DHT22;2161;53.634;10.100;2023-04-16T10:17:11;11.40;99.90
4295;DHT22;2161;53.634;10.100;2023-04-16T10:19:37;11.30;99.90
4295;DHT22;2161;53.634;10.100;2023-04-16T10:22:03;11.30;99.90
4295;DHT22;2161;53.634;10.100;2023-04-16T10:24:29;11.30;99.90
4295;DHT22;2161;53.634;10.100;2023-04-16T10:26:56;11.30;99.90
4295;DHT22;2161;53.634;10.100;2023-04-16T10:29:22;11.50;99.90
4295;DHT22;2161;53.634;10.100;2023-04-16T10:31:48;11.60;99.90
4295;DHT22;2161;53.634;10.100;2023-04-16T10:34:14;11.60;99.90
4295;DHT22;2161;53.634;10.100;2023-04-16T10:36:41;11.70;99.90
4295;DHT22;2161;53.634;10.100;2023-04-16T10:39:10;11.80;99.90
4295;DHT22;2161;53.634;10.100;2023-04-16T10:41:37;11.70;99.90
4295;DHT22;2161;53.634;10.100;2023-04-16T10:44:07;11.70;99.90
4295;DHT22;2161;53.634;10.100;2023-04-16T10:46:40;11.80;99.90
4295;DHT22;2161;53.634;10.100;2023-04-16T10:49:24;11.80;99.90
4295;DHT22;2161;53.634;10.100;2023-04-16T10:52:03;11.70;99.90
4295;DHT22;2161;53.634;10.100;2023-04-16T10:54:34;11.70;99.90
4295;DHT22;2161;53.634;10.100;2023-04-16T10:57:03;11.80;99.90
4295;DHT22;2161;53.634;10.100;2023-04-16T10:59:31;11.80;99.90
4295;DHT22;2161;53.634;10.100;2023-04-16T11:01:59;11.80;99.90
4295;DHT22;2161;53.634;10.100;2023-04-16T11:04:32;11.90;99.90
4295;DHT22;2161;53.634;10.100;2023-04-16T11:09:58;11.90;99.90
4295;DHT22;2161;53.634;10.100;2023-04-16T11:12:26;11.90;99.90
4295;DHT22;2161;53.634;10.100;2023-04-16T11:14:59;11.70;99.90
4295;DHT22;2161;53.634;10.100;2023-04-16T11:17:31;11.60;99.90
4295;DHT22;2161;53.634;10.100;2023-04-16T11:19:57;11.60;99.90
4295;DHT22;2161;53.634;10.100;2023-04-16T11:22:23;11.60;99.90
4295;DHT22;2161;53.634;10.100;2023-04-16T11:24:56;11.60;99.90
4295;DHT22;2161;53.634;10.100;2023-04-16T11:27:23;11.60;99.90
4295;DHT22;2161;53.634;10.100;2023-04-16T11:30:02;11.60;99.90
4295;DHT22;2161;53.634;10.100;2023-04-16T11:32:32;11.60;99.90
4295;DHT22;2161;53.634;10.100;2023-04-16T11:34:59;11.40;99.90
4295;DHT22;2161;53.634;10.100;2023-04-16T11:37:35;11.50;99.90
4295;DHT22;2161;53.634;10.100;2023-04-16T11:40:02;11.60;99.90
4295;DHT22;2161;53.634;10.100;2023-04-16T11:42:30;11.50;99.90
4295;DHT22;2161;53.634;10.100;2023-04-16T11:44:58;11.40;99.90
4295;DHT22;2161;53.634;10.100;2023-04-16T11:47:27;11.40;99.90
4295;DHT22;2161;53.634;10.100;2023-04-16T11:49:53;11.30;99.90
4295;DHT22;2161;53.634;10.100;2023-04-16T11:52:32;11.30;99.90
4295;DHT22;2161;53.634;10.100;2023-04-16T11:54:58;11.40;99.90
4295;DHT22;2161;53.634;10.100;2023-04-16T11:57:29;11.40;99.90
4295;DHT22;2161;53.634;10.100;2023-04-16T11:59:56;11.50;99.90
4295;DHT22;2161;53.634;10.100;2023-04-16T12:02:37;11.60;99.90
4295;DHT22;2161;53.634;10.100;2023-04-16T12:05:05;11.40;99.90
4295;DHT22;2161;53.634;10.100;2023-04-16T12:07:33;11.30;99.90
4295;DHT22;2161;53.634;10.100;2023-04-16T12:10:08;11.50;99.90
4295;DHT22;2161;53.634;10.100;2023-04-16T12:12:33;11.50;99.90
4295;DHT22;2161;53.634;10.100;2023-04-16T12:15:03;11.60;99.90
4295;DHT22;2161;53.634;10.100;2023-04-16T12:17:33;11.70;99.90
4295;DHT22;2161;53.634;10.100;2023-04-16T12:20:01;11.80;99.90
4295;DHT22;2161;53.634;10.100;2023-04-16T12:22:32;11.90;99.90
4295;DHT22;2161;53.634;10.100;2023-04-16T12:25:06;11.70;99.90
4295;DHT22;2161;53.634;10.100;2023-04-16T12:27:53;11.70;99.90
4295;DHT22;2161;53.634;10.100;2023-04-16T12:30:23;11.80;99.90
4295;DHT22;2161;53.634;10.100;2023-04-16T12:32:52;11.80;99.90
4295;DHT22;2161;53.634;10.100;2023-04-16T12:35:32;11.80;99.90
4295;DHT22;2161;53.634;10.100;2023-04-16T12:37:58;11.70;99.90
4295;DHT22;2161;53.634;10.100;2023-04-16T12:40:24;11.70;99.90
4295;DHT22;2161;53.634;10.100;2023-04-16T12:42:50;11.90;99.90
4295;DHT22;2161;53.634;10.100;2023-04-16T12:45:15;11.70;99.90
4295;DHT22;2161;53.634;10.100;2023-04-16T12:47:41;11.80;99.90
4295;DHT22;2161;53.634;10.100;2023-04-16T12:50:07;11.70;99.90
4295;DHT22;2161;53.634;10.100;2023-04-16T12:52:33;11.60;99.90
4295;DHT22;2161;53.634;10.100;2023-04-16T12:55:00;11.60;99.90
4295;DHT22;2161;53.634;10.100;2023-04-16T12:57:26;11.70;99.90
4295;DHT22;2161;53.634;10.100;2023-04-16T12:59:56;11.80;99.90
4295;DHT22;2161;53.634;10.100;2023-04-16T13:02:22;11.60;99.90
4295;DHT22;2161;53.634;10.100;2023-04-16T13:04:48;11.60;99.90
4295;DHT22;2161;53.634;10.100;2023-04-16T13:07:14;11.60;99.90
4295;DHT22;2161;53.634;10.100;2023-04-16T13:09:40;11.70;99.90
4295;DHT22;2161;53.634;10.100;2023-04-16T13:12:06;11.70;99.90
4295;DHT22;2161;53.634;10.100;2023-04-16T13:14:31;11.80;99.90
4295;DHT22;2161;53.634;10.100;2023-04-16T13:16:57;11.80;99.90
4295;DHT22;2161;53.634;10.100;2023-04-16T13:19:22;11.80;99.90
4295;DHT22;2161;53.634;10.100;2023-04-16T13:21:48;11.90;99.90
4295;DHT22;2161;53.634;10.100;2023-04-16T13:24:13;11.80;99.90
4295;DHT22;2161;53.634;10.100;2023-04-16T13:26:39;11.90;99.90
4295;DHT22;2161;53.634;10.100;2023-04-16T13:29:05;11.80;99.90
4295;DHT22;2161;53.634;10.100;2023-04-16T13:31:31;11.70;99.90
4295;DHT22;2161;53.634;10.100;2023-04-16T13:33:56;11.80;99.90
4295;DHT22;2161;53.634;10.100;2023-04-16T13:36:22;11.70;99.90
4295;DHT22;2161;53.634;10.100;2023-04-16T13:38:48;11.70;99.90
4295;DHT22;2161;53.634;10.100;2023-04-16T13:41:13;11.70;99.90
4295;DHT22;2161;53.634;10.100;2023-04-16T13:43:39;11.70;99.90
4295;DHT22;2161;53.634;10.100;2023-04-16T13:46:04;11.60;99.90
4295;DHT22;2161;53.634;10.100;2023-04-16T13:48:30;11.60;99.90
4295;DHT22;2161;53.634;10.100;2023-04-16T13:50:56;11.70;99.90
4295;DHT22;2161;53.634;10.100;2023-04-16T13:53:22;11.80;99.90
4295;DHT22;2161;53.634;10.100;2023-04-16T13:55:48;11.90;99.90
4295;DHT22;2161;53.634;10.100;2023-04-16T13:58:14;12.00;99.90
4295;DHT22;2161;53.634;10.100;2023-04-16T14:00:41;11.90;99.90
4295;DHT22;2161;53.634;10.100;2023-04-16T14:03:07;11.90;99.90
4295;DHT22;2161;53.634;10.100;2023-04-16T14:05:32;11.90;99.90
4295;DHT22;2161;53.634;10.100;2023-04-16T14:07:58;11.70;99.90
4295;DHT22;2161;53.634;10.100;2023-04-16T14:10:23;11.90;99.90
4295;DHT22;2161;53.634;10.100;2023-04-16T14:12:49;11.80;99.90
4295;DHT22;2161;53.634;10.100;2023-04-16T14:15:15;11.80;99.90
4295;DHT22;2161;53.634;10.100;2023-04-16T14:17:43;11.70;99.90
4295;DHT22;2161;53.634;10.100;2023-04-16T14:20:11;11.90;99.90
4295;DHT22;2161;53.634;10.100;2023-04-16T14:22:37;11.80;99.90
4295;DHT22;2161;53.634;10.100;2023-04-16T14:25:03;11.80;99.90
4295;DHT22;2161;53.634;10.100;2023-04-16T14:27:29;11.80;99.90
4295;DHT22;2161;53.634;10.100;2023-04-16T14:29:54;11.90;99.90
4295;DHT22;2161;53.634;10.100;2023-04-16T14:32:20;11.90;99.90
4295;DHT22;2161;53.634;10.100;2023-04-16T14:34:46;11.80;99.90
4295;DHT22;2161;53.634;10.100;2023-04-16T14:37:11;11.90;99.90
4295;DHT22;2161;53.634;10.100;2023-04-16T14:39:37;11.80;99.90
4295;DHT22;2161;53.634;10.100;2023-04-16T14:42:04;11.80;99.90
4295;DHT22;2161;53.634;10.100;2023-04-16T14:44:30;11.90;99.90
4295;DHT22;2161;53.634;10.100;2023-04-16T14:46:56;11.80;99.90
4295;DHT22;2161;53.634;10.100;2023-04-16T14:49:22;11.90;99.90
4295;DHT22;2161;53.634;10.100;2023-04-16T14:51:47;12.00;99.90
4295;DHT22;2161;53.634;10.100;2023-04-16T14:54:13;12.00;99.90
4295;DHT22;2161;53.634;10.100;2023-04-16T14:56:39;12.00;99.90
4295;DHT22;2161;53.634;10.100;2023-04-16T14:59:05;11.90;99.90
4295;DHT22;2161;53.634;10.100;2023-04-16T15:01:32;11.90;99.90
4295;DHT22;2161;53.634;10.100;2023-04-16T15:03:58;11.80;99.90
4295;DHT22;2161;53.634;10.100;2023-04-16T15:06:24;11.90;99.90
4295;DHT22;2161;53.634;10.100;2023-04-16T15:08:50;11.90;99.90
4295;DHT22;2161;53.634;10.100;2023-04-16T15:11:16;11.90;99.90
4295;DHT22;2161;53.634;10.100;2023-04-16T15:13:41;12.00;99.90
4295;DHT22;2161;53.634;10.100;2023-04-16T15:16:07;12.00;99.90
4295;DHT22;2161;53.634;10.100;2023-04-16T15:18:32;12.00;99.90
4295;DHT22;2161;53.634;10.100;2023-04-16T15:20:58;12.10;99.90
4295;DHT22;2161;53.634;10.100;2023-04-16T15:23:23;12.10;99.90
4295;DHT22;2161;53.634;10.100;2023-04-16T15:25:49;12.10;99.90
4295;DHT22;2161;53.634;10.100;2023-04-16T15:28:15;12.20;99.90
4295;DHT22;2161;53.634;10.100;2023-04-16T15:30:40;12.00;99.90
4295;DHT22;2161;53.634;10.100;2023-04-16T15:33:06;12.10;99.90
4295;DHT22;2161;53.634;10.100;2023-04-16T15:35:33;11.90;99.90
4295;DHT22;2161;53.634;10.100;2023-04-16T15:37:59;11.80;99.90
4295;DHT22;2161;53.634;10.100;2023-04-16T15:40:25;11.90;99.90
4295;DHT22;2161;53.634;10.100;2023-04-16T15:42:50;11.90;99.90
4295;DHT22;2161;53.634;10.100;2023-04-16T15:45:16;11.90;99.90
4295;DHT22;2161;53.634;10.100;2023-04-16T15:47:42;11.80;99.90